createdAt,value
2018-07-20T00:00:45.558Z,1017.34
2018-07-20T00:01:45.614Z,1017.35
2018-07-20T00:02:45.716Z,1017.37
2018-07-20T00:03:45.539Z,1017.38
2018-07-20T00:04:55.635Z,1017.35
2018-07-20T00:05:45.910Z,1017.34
2018-07-20T00:06:45.896Z,1017.35
2018-07-20T00:07:45.695Z,1017.31
2018-07-20T00:08:45.753Z,1017.3
2018-07-20T00:09:45.716Z,1017.27
2018-07-20T00:10:45.805Z,1017.33
2018-07-20T00:11:45.844Z,1017.29
2018-07-20T00:12:45.691Z,1017.26
2018-07-20T00:13:45.505Z,1017.24
2018-07-20T00:14:45.639Z,1017.27
2018-07-20T00:15:45.770Z,1017.26
2018-07-20T00:16:46.152Z,1017.24
2018-07-20T00:17:45.820Z,1017.21
2018-07-20T00:18:45.736Z,1017.25
2018-07-20T00:19:45.622Z,1017.27
2018-07-20T00:20:45.690Z,1017.23
2018-07-20T00:21:45.675Z,1017.21
2018-07-20T00:22:45.560Z,1017.25
2018-07-20T00:23:45.752Z,1017.18
2018-07-20T00:24:45.574Z,1017.18
2018-07-20T00:25:45.487Z,1017.15
2018-07-20T00:26:45.645Z,1017.17
2018-07-20T00:27:45.797Z,1017.18
2018-07-20T00:28:45.515Z,1017.15
2018-07-20T00:29:45.586Z,1017.17
2018-07-20T00:30:45.580Z,1017.13
2018-07-20T00:31:45.584Z,1017.16
2018-07-20T00:32:45.605Z,1017.13
2018-07-20T00:33:45.502Z,1017.14
2018-07-20T00:34:45.717Z,1017.09
2018-07-20T00:35:45.713Z,1017.11
2018-07-20T00:36:45.555Z,1017.09
2018-07-20T00:37:45.616Z,1017.08
2018-07-20T00:38:45.715Z,1017.05
2018-07-20T00:39:45.585Z,1017.07
2018-07-20T00:40:45.934Z,1017.01
2018-07-20T00:41:45.787Z,1017.03
2018-07-20T00:42:45.652Z,1016.99
2018-07-20T00:43:45.821Z,1016.99
2018-07-20T00:44:45.591Z,1016.98
2018-07-20T00:45:45.663Z,1017.01
2018-07-20T00:46:45.705Z,1016.97
2018-07-20T00:47:45.588Z,1016.98
2018-07-20T00:48:45.619Z,1016.99
2018-07-20T00:49:45.627Z,1016.99
2018-07-20T00:50:45.595Z,1016.99
2018-07-20T00:51:45.843Z,1016.97
2018-07-20T00:52:45.771Z,1016.99
2018-07-20T00:53:45.540Z,1016.95
2018-07-20T00:54:45.580Z,1016.95
2018-07-20T00:55:45.657Z,1016.95
2018-07-20T00:56:45.685Z,1016.92
2018-07-20T00:57:45.745Z,1016.93
2018-07-20T00:58:45.773Z,1016.94
2018-07-20T00:59:45.700Z,1016.92
2018-07-20T01:00:45.536Z,1016.92
2018-07-20T01:01:45.654Z,1016.89
2018-07-20T01:02:45.576Z,1016.91
2018-07-20T01:03:45.786Z,1016.92
2018-07-20T01:04:45.657Z,1016.89
2018-07-20T01:05:45.785Z,1016.91
2018-07-20T01:06:45.845Z,1016.88
2018-07-20T01:07:45.677Z,1016.89
2018-07-20T01:08:45.561Z,1016.91
2018-07-20T01:09:45.702Z,1016.94
2018-07-20T01:10:45.580Z,1016.94
2018-07-20T01:11:45.669Z,1016.92
2018-07-20T01:12:45.781Z,1016.92
2018-07-20T01:13:45.586Z,1016.91
2018-07-20T01:14:45.659Z,1016.9
2018-07-20T01:15:45.658Z,1016.88
2018-07-20T01:16:45.860Z,1016.88
2018-07-20T01:17:45.760Z,1016.86
2018-07-20T01:18:45.667Z,1016.91
2018-07-20T01:19:45.628Z,1016.88
2018-07-20T01:20:45.641Z,1016.86
2018-07-20T01:21:45.868Z,1016.88
2018-07-20T01:22:45.626Z,1016.89
2018-07-20T01:23:45.685Z,1016.87
2018-07-20T01:24:45.699Z,1016.85
2018-07-20T01:25:45.717Z,1016.86
2018-07-20T01:26:45.604Z,1016.85
2018-07-20T01:27:45.688Z,1016.86
2018-07-20T01:28:45.604Z,1016.87
2018-07-20T01:29:45.578Z,1016.86
2018-07-20T01:30:45.643Z,1016.88
2018-07-20T01:31:45.615Z,1016.86
2018-07-20T01:32:45.685Z,1016.9
2018-07-20T01:33:45.632Z,1016.9
2018-07-20T01:34:45.764Z,1016.89
2018-07-20T01:35:45.597Z,1016.91
2018-07-20T01:36:45.708Z,1016.85
2018-07-20T01:37:45.708Z,1016.9
2018-07-20T01:38:45.644Z,1016.88
2018-07-20T01:39:45.576Z,1016.85
2018-07-20T01:40:45.484Z,1016.85
2018-07-20T01:41:45.659Z,1016.83
2018-07-20T01:42:45.520Z,1016.86
2018-07-20T01:43:45.541Z,1016.85
2018-07-20T01:44:45.757Z,1016.83
2018-07-20T01:45:45.558Z,1016.8
2018-07-20T01:46:45.613Z,1016.84
2018-07-20T01:47:45.747Z,1016.83
2018-07-20T01:48:45.633Z,1016.83
2018-07-20T01:49:45.528Z,1016.83
2018-07-20T01:50:45.603Z,1016.81
2018-07-20T01:51:45.670Z,1016.79
2018-07-20T01:52:45.596Z,1016.83
2018-07-20T01:53:45.489Z,1016.8
2018-07-20T01:54:45.616Z,1016.84
2018-07-20T01:55:45.760Z,1016.85
2018-07-20T01:56:45.621Z,1016.8
2018-07-20T01:57:45.593Z,1016.8
2018-07-20T01:58:45.729Z,1016.84
2018-07-20T01:59:45.628Z,1016.76
2018-07-20T02:00:45.603Z,1016.82
2018-07-20T02:01:45.696Z,1016.79
2018-07-20T02:02:45.935Z,1016.76
2018-07-20T02:03:45.600Z,1016.77
2018-07-20T02:04:45.644Z,1016.77
2018-07-20T02:05:45.511Z,1016.81
2018-07-20T02:06:45.969Z,1016.75
2018-07-20T02:07:45.576Z,1016.78
2018-07-20T02:08:45.680Z,1016.74
2018-07-20T02:09:45.611Z,1016.74
2018-07-20T02:10:45.680Z,1016.77
2018-07-20T02:11:45.810Z,1016.76
2018-07-20T02:12:45.613Z,1016.74
2018-07-20T02:13:45.646Z,1016.76
2018-07-20T02:14:45.823Z,1016.75
2018-07-20T02:15:45.767Z,1016.77
2018-07-20T02:16:45.785Z,1016.76
2018-07-20T02:17:45.912Z,1016.77
2018-07-20T02:18:45.903Z,1016.8
2018-07-20T02:19:45.598Z,1016.79
2018-07-20T02:20:45.628Z,1016.78
2018-07-20T02:21:45.599Z,1016.81
2018-07-20T02:22:45.909Z,1016.79
2018-07-20T02:23:45.858Z,1016.81
2018-07-20T02:24:45.686Z,1016.83
2018-07-20T02:25:45.476Z,1016.8
2018-07-20T02:26:45.506Z,1016.83
2018-07-20T02:27:45.720Z,1016.83
2018-07-20T02:28:45.732Z,1016.78
2018-07-20T02:29:45.545Z,1016.81
2018-07-20T02:30:45.701Z,1016.8
2018-07-20T02:31:45.655Z,1016.78
2018-07-20T02:32:45.603Z,1016.79
2018-07-20T02:33:45.770Z,1016.79
2018-07-20T02:34:45.614Z,1016.8
2018-07-20T02:35:45.961Z,1016.81
2018-07-20T02:36:45.712Z,1016.8
2018-07-20T02:37:45.706Z,1016.82
2018-07-20T02:38:45.586Z,1016.79
2018-07-20T02:39:45.718Z,1016.82
2018-07-20T02:40:45.909Z,1016.77
2018-07-20T02:41:45.980Z,1016.8
2018-07-20T02:42:45.583Z,1016.75
2018-07-20T02:43:45.567Z,1016.78
2018-07-20T02:44:45.582Z,1016.75
2018-07-20T02:45:45.800Z,1016.75
2018-07-20T02:46:45.665Z,1016.75
2018-07-20T02:47:45.607Z,1016.73
2018-07-20T02:48:45.688Z,1016.78
2018-07-20T02:49:45.675Z,1016.77
2018-07-20T02:50:45.736Z,1016.72
2018-07-20T02:51:45.486Z,1016.69
2018-07-20T02:52:45.591Z,1016.73
2018-07-20T02:53:45.476Z,1016.71
2018-07-20T02:54:45.473Z,1016.73
2018-07-20T02:55:45.724Z,1016.71
2018-07-20T02:56:45.685Z,1016.68
2018-07-20T02:57:45.614Z,1016.68
2018-07-20T02:58:45.552Z,1016.68
2018-07-20T02:59:45.514Z,1016.71
2018-07-20T03:00:45.487Z,1016.71
2018-07-20T03:01:45.597Z,1016.69
2018-07-20T03:02:45.597Z,1016.71
2018-07-20T03:03:45.492Z,1016.73
2018-07-20T03:04:45.520Z,1016.74
2018-07-20T03:05:45.698Z,1016.74
2018-07-20T03:06:45.680Z,1016.76
2018-07-20T03:07:45.663Z,1016.79
2018-07-20T03:08:45.700Z,1016.74
2018-07-20T03:09:45.588Z,1016.71
2018-07-20T03:10:45.563Z,1016.76
2018-07-20T03:11:45.715Z,1016.72
2018-07-20T03:12:45.888Z,1016.73
2018-07-20T03:13:45.712Z,1016.74
2018-07-20T03:14:45.721Z,1016.73
2018-07-20T03:15:45.829Z,1016.75
2018-07-20T03:16:45.650Z,1016.71
2018-07-20T03:17:45.616Z,1016.73
2018-07-20T03:18:45.579Z,1016.74
2018-07-20T03:19:45.649Z,1016.75
2018-07-20T03:20:45.803Z,1016.76
2018-07-20T03:21:45.695Z,1016.76
2018-07-20T03:22:45.713Z,1016.75
2018-07-20T03:23:45.709Z,1016.75
2018-07-20T03:24:45.602Z,1016.77
2018-07-20T03:25:45.776Z,1016.76
2018-07-20T03:26:45.843Z,1016.8
2018-07-20T03:27:45.584Z,1016.76
2018-07-20T03:28:45.502Z,1016.77
2018-07-20T03:29:45.665Z,1016.75
2018-07-20T03:30:45.665Z,1016.77
2018-07-20T03:31:45.579Z,1016.77
2018-07-20T03:32:46.008Z,1016.76
2018-07-20T03:33:45.621Z,1016.79
2018-07-20T03:34:45.580Z,1016.75
2018-07-20T03:35:45.804Z,1016.73
2018-07-20T03:36:45.658Z,1016.71
2018-07-20T03:37:45.452Z,1016.73
2018-07-20T03:38:45.721Z,1016.73
2018-07-20T03:39:45.672Z,1016.74
2018-07-20T03:40:45.691Z,1016.73
2018-07-20T03:41:45.478Z,1016.72
2018-07-20T03:42:45.662Z,1016.72
2018-07-20T03:43:45.441Z,1016.73
2018-07-20T03:44:45.597Z,1016.7
2018-07-20T03:45:45.609Z,1016.64
2018-07-20T03:46:45.553Z,1016.67
2018-07-20T03:47:45.552Z,1016.68
2018-07-20T03:48:45.606Z,1016.59
2018-07-20T03:49:45.581Z,1016.63
2018-07-20T03:50:45.645Z,1016.61
2018-07-20T03:51:45.718Z,1016.56
2018-07-20T03:52:45.627Z,1016.51
2018-07-20T03:53:45.562Z,1016.56
2018-07-20T03:54:45.445Z,1016.51
2018-07-20T03:55:45.514Z,1016.55
2018-07-20T03:56:45.682Z,1016.52
2018-07-20T03:57:45.700Z,1016.56
2018-07-20T03:58:45.697Z,1016.58
2018-07-20T03:59:45.773Z,1016.51
2018-07-20T04:00:45.608Z,1016.51
2018-07-20T04:01:45.666Z,1016.47
2018-07-20T04:02:45.656Z,1016.5
2018-07-20T04:03:45.656Z,1016.47
2018-07-20T04:04:45.507Z,1016.51
2018-07-20T04:05:45.691Z,1016.47
2018-07-20T04:06:45.531Z,1016.47
2018-07-20T04:07:45.526Z,1016.48
2018-07-20T04:08:45.675Z,1016.46
2018-07-20T04:09:45.702Z,1016.49
2018-07-20T04:10:45.579Z,1016.46
2018-07-20T04:11:45.654Z,1016.5
2018-07-20T04:12:45.532Z,1016.5
2018-07-20T04:13:45.417Z,1016.49
2018-07-20T04:14:45.475Z,1016.45
2018-07-20T04:15:45.413Z,1016.46
2018-07-20T04:16:45.633Z,1016.46
2018-07-20T04:17:45.639Z,1016.47
2018-07-20T04:18:45.476Z,1016.42
2018-07-20T04:19:45.720Z,1016.45
2018-07-20T04:20:45.684Z,1016.46
2018-07-20T04:21:45.578Z,1016.49
2018-07-20T04:22:45.599Z,1016.44
2018-07-20T04:23:45.668Z,1016.43
2018-07-20T04:24:45.777Z,1016.45
2018-07-20T04:25:45.631Z,1016.44
2018-07-20T04:26:45.628Z,1016.42
2018-07-20T04:27:45.835Z,1016.43
2018-07-20T04:28:45.501Z,1016.4
2018-07-20T04:29:45.659Z,1016.45
2018-07-20T04:30:45.754Z,1016.42
2018-07-20T04:31:45.523Z,1016.43
2018-07-20T04:32:45.808Z,1016.42
2018-07-20T04:33:45.582Z,1016.46
2018-07-20T04:34:45.562Z,1016.43
2018-07-20T04:35:45.681Z,1016.44
2018-07-20T04:36:45.807Z,1016.45
2018-07-20T04:37:45.615Z,1016.47
2018-07-20T04:38:45.442Z,1016.46
2018-07-20T04:39:45.622Z,1016.45
2018-07-20T04:40:45.571Z,1016.46
2018-07-20T04:41:45.605Z,1016.5
2018-07-20T04:42:45.530Z,1016.44
2018-07-20T04:43:45.865Z,1016.43
2018-07-20T04:44:45.615Z,1016.49
2018-07-20T04:45:45.704Z,1016.46
2018-07-20T04:46:45.465Z,1016.5
2018-07-20T04:47:45.883Z,1016.51
2018-07-20T04:48:45.545Z,1016.47
2018-07-20T04:49:45.590Z,1016.49
2018-07-20T04:50:45.536Z,1016.48
2018-07-20T04:51:45.519Z,1016.48
2018-07-20T04:52:45.673Z,1016.42
2018-07-20T04:53:45.531Z,1016.41
2018-07-20T04:54:45.646Z,1016.45
2018-07-20T04:55:45.604Z,1016.46
2018-07-20T04:56:45.725Z,1016.46
2018-07-20T04:57:45.473Z,1016.49
2018-07-20T04:58:45.777Z,1016.46
2018-07-20T04:59:45.419Z,1016.54
2018-07-20T05:00:45.498Z,1016.48
2018-07-20T05:01:45.563Z,1016.5
2018-07-20T05:02:45.609Z,1016.52
2018-07-20T05:03:45.946Z,1016.52
2018-07-20T05:04:45.826Z,1016.51
2018-07-20T05:05:45.496Z,1016.52
2018-07-20T05:06:45.515Z,1016.55
2018-07-20T05:07:45.782Z,1016.52
2018-07-20T05:08:45.696Z,1016.52
2018-07-20T05:09:45.655Z,1016.49
2018-07-20T05:10:45.668Z,1016.47
2018-07-20T05:11:45.686Z,1016.48
2018-07-20T05:12:45.550Z,1016.47
2018-07-20T05:13:45.836Z,1016.55
2018-07-20T05:14:45.553Z,1016.54
2018-07-20T05:15:45.674Z,1016.49
2018-07-20T05:16:45.594Z,1016.53
2018-07-20T05:17:45.612Z,1016.54
2018-07-20T05:18:45.443Z,1016.48
2018-07-20T05:19:45.585Z,1016.53
2018-07-20T05:20:45.631Z,1016.54
2018-07-20T05:21:45.783Z,1016.53
2018-07-20T05:22:45.519Z,1016.49
2018-07-20T05:23:45.529Z,1016.49
2018-07-20T05:24:45.659Z,1016.5
2018-07-20T05:25:45.437Z,1016.5
2018-07-20T05:26:45.665Z,1016.52
2018-07-20T05:27:45.550Z,1016.54
2018-07-20T05:28:45.587Z,1016.54
2018-07-20T05:29:45.651Z,1016.51
2018-07-20T05:30:45.635Z,1016.52
2018-07-20T05:31:45.574Z,1016.52
2018-07-20T05:32:45.479Z,1016.54
2018-07-20T05:33:45.603Z,1016.48
2018-07-20T05:34:45.424Z,1016.52
2018-07-20T05:35:45.597Z,1016.46
2018-07-20T05:36:45.451Z,1016.5
2018-07-20T05:37:45.527Z,1016.48
2018-07-20T05:38:45.547Z,1016.5
2018-07-20T05:39:45.736Z,1016.44
2018-07-20T05:40:45.695Z,1016.47
2018-07-20T05:41:45.626Z,1016.53
2018-07-20T05:42:45.542Z,1016.55
2018-07-20T05:43:45.683Z,1016.58
2018-07-20T05:44:45.536Z,1016.5
2018-07-20T05:45:45.721Z,1016.52
2018-07-20T05:46:45.704Z,1016.46
2018-07-20T05:47:45.527Z,1016.48
2018-07-20T05:48:45.537Z,1016.47
2018-07-20T05:49:45.660Z,1016.47
2018-07-20T05:50:45.627Z,1016.47
2018-07-20T05:51:45.685Z,1016.39
2018-07-20T05:52:45.674Z,1016.4
2018-07-20T05:53:45.537Z,1016.41
2018-07-20T05:54:45.426Z,1016.34
2018-07-20T05:55:45.488Z,1016.37
2018-07-20T05:56:45.609Z,1016.3
2018-07-20T05:57:45.658Z,1016.3
2018-07-20T05:58:45.713Z,1016.25
2018-07-20T05:59:45.648Z,1016.29
2018-07-20T06:00:45.569Z,1016.28
2018-07-20T06:01:45.636Z,1016.28
2018-07-20T06:02:45.804Z,1016.25
2018-07-20T06:03:45.454Z,1016.27
2018-07-20T06:04:45.598Z,1016.25
2018-07-20T06:05:45.844Z,1016.28
2018-07-20T06:06:45.722Z,1016.29
2018-07-20T06:07:45.583Z,1016.28
2018-07-20T06:08:45.512Z,1016.28
2018-07-20T06:09:45.559Z,1016.24
2018-07-20T06:10:45.588Z,1016.25
2018-07-20T06:11:45.651Z,1016.27
2018-07-20T06:12:45.651Z,1016.25
2018-07-20T06:13:45.496Z,1016.25
2018-07-20T06:14:45.479Z,1016.26
2018-07-20T06:15:45.626Z,1016.27
2018-07-20T06:16:45.641Z,1016.27
2018-07-20T06:17:45.706Z,1016.26
2018-07-20T06:18:45.780Z,1016.33
2018-07-20T06:19:45.637Z,1016.25
2018-07-20T06:20:45.629Z,1016.27
2018-07-20T06:22:07.637Z,1016.29
2018-07-20T06:22:45.561Z,1016.32
2018-07-20T06:23:45.799Z,1016.3
2018-07-20T06:24:55.576Z,1016.3
2018-07-20T06:25:47.225Z,1016.33
2018-07-20T06:26:45.444Z,1016.29
2018-07-20T06:27:45.590Z,1016.26
2018-07-20T06:28:45.583Z,1016.26
2018-07-20T06:29:45.662Z,1016.29
2018-07-20T06:30:45.563Z,1016.28
2018-07-20T06:31:45.621Z,1016.27
2018-07-20T06:32:45.555Z,1016.21
2018-07-20T06:33:45.386Z,1016.25
2018-07-20T06:34:45.533Z,1016.24
2018-07-20T06:35:45.479Z,1016.2
2018-07-20T06:36:45.660Z,1016.2
2018-07-20T06:37:45.434Z,1016.2
2018-07-20T06:38:45.577Z,1016.19
2018-07-20T06:39:45.610Z,1016.22
2018-07-20T06:40:45.730Z,1016.2
2018-07-20T06:41:45.476Z,1016.21
2018-07-20T06:42:45.417Z,1016.21
2018-07-20T06:43:45.451Z,1016.22
2018-07-20T06:44:45.725Z,1016.22
2018-07-20T06:45:45.447Z,1016.25
2018-07-20T06:46:45.598Z,1016.23
2018-07-20T06:47:45.447Z,1016.23
2018-07-20T06:48:45.594Z,1016.23
2018-07-20T06:49:45.834Z,1016.26
2018-07-20T06:50:45.783Z,1016.26
2018-07-20T06:51:45.416Z,1016.26
2018-07-20T06:52:45.715Z,1016.29
2018-07-20T06:53:45.612Z,1016.29
2018-07-20T06:54:45.565Z,1016.29
2018-07-20T06:55:45.743Z,1016.3
2018-07-20T06:56:45.680Z,1016.29
2018-07-20T06:57:45.636Z,1016.28
2018-07-20T06:58:45.485Z,1016.3
2018-07-20T06:59:45.775Z,1016.33
2018-07-20T07:00:45.480Z,1016.28
2018-07-20T07:01:45.678Z,1016.33
2018-07-20T07:02:45.600Z,1016.36
2018-07-20T07:03:45.416Z,1016.32
2018-07-20T07:04:45.633Z,1016.31
2018-07-20T07:05:45.617Z,1016.31
2018-07-20T07:06:45.579Z,1016.32
2018-07-20T07:07:45.567Z,1016.33
2018-07-20T07:08:45.582Z,1016.31
2018-07-20T07:09:45.384Z,1016.35
2018-07-20T07:10:45.514Z,1016.31
2018-07-20T07:11:45.715Z,1016.28
2018-07-20T07:12:45.483Z,1016.3
2018-07-20T07:13:45.550Z,1016.32
2018-07-20T07:14:45.772Z,1016.34
2018-07-20T07:15:45.636Z,1016.3
2018-07-20T07:16:45.617Z,1016.3
2018-07-20T07:17:45.414Z,1016.3
2018-07-20T07:18:45.588Z,1016.28
2018-07-20T07:19:45.578Z,1016.27
2018-07-20T07:20:45.688Z,1016.31
2018-07-20T07:21:45.679Z,1016.31
2018-07-20T07:22:45.497Z,1016.34
2018-07-20T07:23:45.883Z,1016.29
2018-07-20T07:24:45.591Z,1016.3
2018-07-20T07:25:45.461Z,1016.26
2018-07-20T07:26:45.526Z,1016.26
2018-07-20T07:27:45.616Z,1016.31
2018-07-20T07:28:45.648Z,1016.32
2018-07-20T07:29:45.617Z,1016.32
2018-07-20T07:30:45.829Z,1016.34
2018-07-20T07:31:45.757Z,1016.32
2018-07-20T07:32:45.715Z,1016.35
2018-07-20T07:33:45.641Z,1016.31
2018-07-20T07:34:45.564Z,1016.29
2018-07-20T07:35:45.774Z,1016.29
2018-07-20T07:36:45.397Z,1016.23
2018-07-20T07:37:45.482Z,1016.23
2018-07-20T07:38:45.608Z,1016.22
2018-07-20T07:39:45.573Z,1016.22
2018-07-20T07:40:45.587Z,1016.22
2018-07-20T07:41:45.450Z,1016.23
2018-07-20T07:42:45.669Z,1016.22
2018-07-20T07:43:45.615Z,1016.24
2018-07-20T07:44:45.577Z,1016.23
2018-07-20T07:45:45.492Z,1016.22
2018-07-20T07:46:45.708Z,1016.18
2018-07-20T07:47:45.556Z,1016.2
2018-07-20T07:48:45.641Z,1016.21
2018-07-20T07:49:45.610Z,1016.21
2018-07-20T07:50:45.445Z,1016.23
2018-07-20T07:51:45.594Z,1016.2
2018-07-20T07:52:45.568Z,1016.18
2018-07-20T07:53:45.661Z,1016.17
2018-07-20T07:54:45.766Z,1016.2
2018-07-20T07:55:45.594Z,1016.2
2018-07-20T07:56:45.523Z,1016.24
2018-07-20T07:57:45.419Z,1016.22
2018-07-20T07:58:45.365Z,1016.25
2018-07-20T07:59:45.606Z,1016.24
2018-07-20T08:00:45.589Z,1016.22
2018-07-20T08:01:45.584Z,1016.26
2018-07-20T08:02:45.651Z,1016.22
2018-07-20T08:03:45.397Z,1016.21
2018-07-20T08:04:45.423Z,1016.22
2018-07-20T08:05:45.705Z,1016.23
2018-07-20T08:06:45.345Z,1016.21
2018-07-20T08:07:45.580Z,1016.22
2018-07-20T08:08:45.492Z,1016.21
2018-07-20T08:09:45.780Z,1016.23
2018-07-20T08:10:45.547Z,1016.18
2018-07-20T08:11:45.888Z,1016.17
2018-07-20T08:12:45.528Z,1016.19
2018-07-20T08:13:45.569Z,1016.21
2018-07-20T08:14:45.610Z,1016.18
2018-07-20T08:15:45.582Z,1016.19
2018-07-20T08:16:45.460Z,1016.16
2018-07-20T08:17:45.723Z,1016.17
2018-07-20T08:18:45.572Z,1016.2
2018-07-20T08:19:45.640Z,1016.18
2018-07-20T08:20:45.789Z,1016.17
2018-07-20T08:21:45.416Z,1016.15
2018-07-20T08:22:45.766Z,1016.14
2018-07-20T08:23:45.663Z,1016.15
2018-07-20T08:24:46.122Z,1016.16
2018-07-20T08:25:45.800Z,1016.19
2018-07-20T08:26:45.722Z,1016.14
2018-07-20T08:27:45.598Z,1016.14
2018-07-20T08:28:45.434Z,1016.14
2018-07-20T08:29:45.748Z,1016.12
2018-07-20T08:30:45.381Z,1016.11
2018-07-20T08:31:45.435Z,1016.12
2018-07-20T08:32:45.571Z,1016.12
2018-07-20T08:33:45.597Z,1016.11
2018-07-20T08:34:45.618Z,1016.11
2018-07-20T08:35:45.610Z,1016.1
2018-07-20T08:36:45.724Z,1016.06
2018-07-20T08:37:45.573Z,1016.1
2018-07-20T08:38:45.669Z,1016.08
2018-07-20T08:39:45.449Z,1016.08
2018-07-20T08:40:45.642Z,1016.07
2018-07-20T08:41:45.782Z,1016.07
2018-07-20T08:42:45.429Z,1016.03
2018-07-20T08:43:45.615Z,1016.02
2018-07-20T08:44:45.524Z,1016.06
2018-07-20T08:45:45.867Z,1016.04
2018-07-20T08:46:45.539Z,1015.98
2018-07-20T08:47:45.449Z,1016.01
2018-07-20T08:48:45.643Z,1015.98
2018-07-20T08:49:45.613Z,1015.93
2018-07-20T08:50:45.612Z,1015.91
2018-07-20T08:51:45.526Z,1015.9
2018-07-20T08:52:45.572Z,1015.91
2018-07-20T08:53:45.752Z,1015.89
2018-07-20T08:54:45.401Z,1015.91
2018-07-20T08:55:45.361Z,1015.91
2018-07-20T08:56:45.573Z,1015.93
2018-07-20T08:57:45.401Z,1015.94
2018-07-20T08:58:45.549Z,1015.91
2018-07-20T08:59:45.584Z,1015.87
2018-07-20T09:00:45.760Z,1015.89
2018-07-20T09:01:45.654Z,1015.9
2018-07-20T09:02:45.620Z,1015.87
2018-07-20T09:03:45.660Z,1015.87
2018-07-20T09:04:45.761Z,1015.87
2018-07-20T09:05:45.567Z,1015.85
2018-07-20T09:06:55.585Z,1015.87
2018-07-20T09:07:45.730Z,1015.81
2018-07-20T09:08:45.409Z,1015.86
2018-07-20T09:09:45.493Z,1015.81
2018-07-20T09:10:45.529Z,1015.81
2018-07-20T09:11:45.574Z,1015.8
2018-07-20T09:12:45.535Z,1015.79
2018-07-20T09:13:46.398Z,1015.8
2018-07-20T09:14:45.498Z,1015.79
2018-07-20T09:15:45.486Z,1015.77
2018-07-20T09:16:45.666Z,1015.77
2018-07-20T09:17:45.679Z,1015.78
2018-07-20T09:18:45.608Z,1015.73
2018-07-20T09:19:45.484Z,1015.73
2018-07-20T09:20:46.069Z,1015.74
2018-07-20T09:21:45.720Z,1015.82
2018-07-20T09:22:45.599Z,1015.74
2018-07-20T09:23:45.483Z,1015.77
2018-07-20T09:24:45.445Z,1015.72
2018-07-20T09:25:45.658Z,1015.68
2018-07-20T09:26:45.604Z,1015.7
2018-07-20T09:27:45.516Z,1015.7
2018-07-20T09:28:45.447Z,1015.7
2018-07-20T09:29:45.623Z,1015.72
2018-07-20T09:30:45.599Z,1015.68
2018-07-20T09:31:45.511Z,1015.7
2018-07-20T09:32:45.627Z,1015.74
2018-07-20T09:33:45.489Z,1015.72
2018-07-20T09:34:45.414Z,1015.73
2018-07-20T09:35:45.503Z,1015.75
2018-07-20T09:36:45.546Z,1015.74
2018-07-20T09:37:45.353Z,1015.75
2018-07-20T09:38:45.610Z,1015.74
2018-07-20T09:39:45.557Z,1015.72
2018-07-20T09:40:45.529Z,1015.74
2018-07-20T09:41:45.552Z,1015.7
2018-07-20T09:42:45.427Z,1015.69
2018-07-20T09:43:45.578Z,1015.72
2018-07-20T09:44:45.707Z,1015.71
2018-07-20T09:45:45.396Z,1015.69
2018-07-20T09:46:45.600Z,1015.7
2018-07-20T09:47:45.560Z,1015.63
2018-07-20T09:48:45.371Z,1015.67
2018-07-20T09:49:45.603Z,1015.66
2018-07-20T09:50:45.477Z,1015.69
2018-07-20T09:51:45.344Z,1015.7
2018-07-20T09:52:45.751Z,1015.7
2018-07-20T09:53:45.367Z,1015.71
2018-07-20T09:54:45.667Z,1015.64
2018-07-20T09:55:45.582Z,1015.69
2018-07-20T09:56:45.705Z,1015.72
2018-07-20T09:57:45.461Z,1015.71
2018-07-20T09:58:45.603Z,1015.72
2018-07-20T09:59:45.645Z,1015.66
2018-07-20T10:00:45.551Z,1015.69
2018-07-20T10:01:45.384Z,1015.68
2018-07-20T10:02:45.591Z,1015.7
2018-07-20T10:03:45.448Z,1015.69
2018-07-20T10:04:45.587Z,1015.64
2018-07-20T10:05:45.689Z,1015.65
2018-07-20T10:06:45.616Z,1015.61
2018-07-20T10:07:45.517Z,1015.6
2018-07-20T10:08:45.588Z,1015.61
2018-07-20T10:09:45.487Z,1015.6
2018-07-20T10:10:45.757Z,1015.55
2018-07-20T10:11:45.549Z,1015.58
2018-07-20T10:12:45.773Z,1015.56
2018-07-20T10:13:45.522Z,1015.52
2018-07-20T10:14:45.607Z,1015.55
2018-07-20T10:15:45.621Z,1015.53
2018-07-20T10:16:45.777Z,1015.56
2018-07-20T10:17:45.534Z,1015.53
2018-07-20T10:18:55.781Z,1015.51
2018-07-20T10:19:45.541Z,1015.53
2018-07-20T10:20:45.612Z,1015.51
2018-07-20T10:21:45.552Z,1015.53
2018-07-20T10:22:45.647Z,1015.54
2018-07-20T10:23:45.426Z,1015.5
2018-07-20T10:24:45.561Z,1015.49
2018-07-20T10:25:46.027Z,1015.43
2018-07-20T10:26:45.370Z,1015.47
2018-07-20T10:28:45.576Z,1015.44
2018-07-20T10:29:45.320Z,1015.42
2018-07-20T10:30:45.750Z,1015.46
2018-07-20T10:31:45.548Z,1015.44
2018-07-20T10:32:45.371Z,1015.37
2018-07-20T10:33:45.592Z,1015.36
2018-07-20T10:34:45.568Z,1015.36
2018-07-20T10:35:45.552Z,1015.41
2018-07-20T10:36:45.578Z,1015.4
2018-07-20T10:37:45.659Z,1015.37
2018-07-20T10:38:45.347Z,1015.37
2018-07-20T10:39:45.497Z,1015.38
2018-07-20T10:40:45.585Z,1015.36
2018-07-20T10:41:45.422Z,1015.34
2018-07-20T10:42:45.388Z,1015.34
2018-07-20T10:43:45.647Z,1015.35
2018-07-20T10:44:45.548Z,1015.33
2018-07-20T10:45:45.542Z,1015.32
2018-07-20T10:46:45.548Z,1015.26
2018-07-20T10:47:45.391Z,1015.29
2018-07-20T10:48:45.772Z,1015.28
2018-07-20T10:49:45.446Z,1015.27
2018-07-20T10:50:45.455Z,1015.3
2018-07-20T10:51:45.449Z,1015.22
2018-07-20T10:52:45.381Z,1015.26
2018-07-20T10:53:45.414Z,1015.22
2018-07-20T10:54:45.513Z,1015.19
2018-07-20T10:55:45.490Z,1015.2
2018-07-20T10:56:45.478Z,1015.18
2018-07-20T10:57:45.461Z,1015.13
2018-07-20T10:58:45.729Z,1015.15
2018-07-20T10:59:45.656Z,1015.14
2018-07-20T11:00:45.420Z,1015.15
2018-07-20T11:01:45.752Z,1015.1
2018-07-20T11:02:45.570Z,1015.12
2018-07-20T11:03:45.671Z,1015.12
2018-07-20T11:04:45.547Z,1015.09
2018-07-20T11:05:45.356Z,1015.06
2018-07-20T11:06:45.403Z,1015.07
2018-07-20T11:07:45.635Z,1015.04
2018-07-20T11:08:45.601Z,1014.99
2018-07-20T11:09:45.410Z,1014.98
2018-07-20T11:10:45.399Z,1014.95
2018-07-20T11:11:45.577Z,1014.93
2018-07-20T11:12:45.540Z,1014.93
2018-07-20T11:13:45.822Z,1014.92
2018-07-20T11:14:45.548Z,1014.88
2018-07-20T11:15:45.448Z,1014.88
2018-07-20T11:16:45.513Z,1014.88
2018-07-20T11:17:45.633Z,1014.87
2018-07-20T11:18:45.591Z,1014.86
2018-07-20T11:19:45.718Z,1014.84
2018-07-20T11:20:45.494Z,1014.78
2018-07-20T11:21:45.804Z,1014.8
2018-07-20T11:22:45.625Z,1014.75
2018-07-20T11:23:45.439Z,1014.74
2018-07-20T11:24:45.671Z,1014.79
2018-07-20T11:25:45.692Z,1014.78
2018-07-20T11:26:45.670Z,1014.76
2018-07-20T11:27:45.594Z,1014.78
2018-07-20T11:28:45.467Z,1014.76
2018-07-20T11:29:45.696Z,1014.74
2018-07-20T11:30:45.644Z,1014.71
2018-07-20T11:31:45.568Z,1014.72
2018-07-20T11:32:45.323Z,1014.71
2018-07-20T11:33:45.432Z,1014.69
2018-07-20T11:34:45.879Z,1014.71
2018-07-20T11:35:45.394Z,1014.68
2018-07-20T11:36:45.646Z,1014.7
2018-07-20T11:37:45.538Z,1014.67
2018-07-20T11:38:45.480Z,1014.66
2018-07-20T11:39:45.481Z,1014.63
2018-07-20T11:40:45.660Z,1014.64
2018-07-20T11:41:45.319Z,1014.61
2018-07-20T11:42:45.811Z,1014.62
2018-07-20T11:43:45.405Z,1014.59
2018-07-20T11:44:45.582Z,1014.63
2018-07-20T11:45:45.476Z,1014.57
2018-07-20T11:46:45.603Z,1014.6
2018-07-20T11:47:45.665Z,1014.55
2018-07-20T11:48:45.622Z,1014.57
2018-07-20T11:49:45.400Z,1014.59
2018-07-20T11:50:45.292Z,1014.55
2018-07-20T11:51:45.606Z,1014.55
2018-07-20T11:52:45.611Z,1014.59
2018-07-20T11:53:45.373Z,1014.5
2018-07-20T11:54:45.494Z,1014.52
2018-07-20T11:55:45.503Z,1014.47
2018-07-20T11:56:45.340Z,1014.41
2018-07-20T11:57:45.373Z,1014.44
2018-07-20T11:58:45.328Z,1014.49
2018-07-20T12:00:07.343Z,1014.42
2018-07-20T12:00:45.616Z,1014.44
2018-07-20T12:01:45.615Z,1014.37
2018-07-20T12:02:45.388Z,1014.36
2018-07-20T12:03:45.590Z,1014.32
2018-07-20T12:04:45.456Z,1014.24
2018-07-20T12:05:45.419Z,1014.28
2018-07-20T12:06:45.673Z,1014.29
2018-07-20T12:07:45.372Z,1014.26
2018-07-20T12:08:45.594Z,1014.22
2018-07-20T12:09:45.376Z,1014.16